createdAt,value
2018-01-04T00:01:49.155Z,9.10
2018-01-04T00:04:18.243Z,9.10
2018-01-04T00:06:46.502Z,9.10
2018-01-04T00:09:14.763Z,9.00
2018-01-04T00:11:44.148Z,9.00
2018-01-04T00:14:12.385Z,9.00
2018-01-04T00:16:41.014Z,9.00
2018-01-04T00:19:10.813Z,9.00
2018-01-04T00:21:39.045Z,9.00
2018-01-04T00:24:07.297Z,8.90
2018-01-04T00:26:35.601Z,8.90
2018-01-04T00:29:04.616Z,9.00
2018-01-04T00:31:32.868Z,9.00
2018-01-04T00:34:02.986Z,9.00
2018-01-04T00:36:31.274Z,9.00
2018-01-04T00:38:59.527Z,9.00
2018-01-04T00:41:27.790Z,9.00
2018-01-04T00:43:56.012Z,9.00
2018-01-04T00:46:24.264Z,8.90
2018-01-04T00:48:52.524Z,8.90
2018-01-04T00:51:22.280Z,8.90
2018-01-04T00:53:50.924Z,9.00
2018-01-04T00:56:20.688Z,8.90
2018-01-04T00:58:50.455Z,8.90
2018-01-04T01:01:18.693Z,8.90
2018-01-04T01:03:46.974Z,8.90
2018-01-04T01:06:15.206Z,8.90
2018-01-04T01:08:43.459Z,8.90
2018-01-04T01:11:12.887Z,8.90
2018-01-04T01:13:41.884Z,9.00
2018-01-04T01:16:10.880Z,8.90
2018-01-04T01:21:09.029Z,9.00
2018-01-04T01:26:07.909Z,8.90
2018-01-04T01:28:36.135Z,8.90
2018-01-04T01:31:04.382Z,9.00
2018-01-04T01:33:32.645Z,9.00
2018-01-04T01:46:56.100Z,9.00
2018-01-04T01:51:54.184Z,9.00
2018-01-04T01:54:22.444Z,9.00
2018-01-04T01:56:50.680Z,8.90
2018-01-04T01:59:18.925Z,9.00
2018-01-04T02:01:48.701Z,9.00
2018-01-04T02:04:16.931Z,9.00
2018-01-04T02:06:45.162Z,9.10
2018-01-04T02:09:13.896Z,9.10
2018-01-04T02:11:42.124Z,9.10
2018-01-04T02:14:11.488Z,9.10
2018-01-04T02:21:56.347Z,9.20
2018-01-04T02:24:36.406Z,9.20
2018-01-04T02:27:16.499Z,9.20
2018-01-04T02:29:56.668Z,9.30
2018-01-04T02:32:37.852Z,9.30
2018-01-04T02:38:06.664Z,9.30
2018-01-04T02:40:46.481Z,9.20
2018-01-04T02:43:26.606Z,9.10
2018-01-04T02:46:02.169Z,9.10
2018-01-04T02:48:31.017Z,9.00
2018-01-04T02:50:59.048Z,9.00
2018-01-04T02:53:28.185Z,9.00
2018-01-04T02:55:56.884Z,9.00
2018-01-04T02:58:25.710Z,9.00
2018-01-04T03:00:54.029Z,9.00
2018-01-04T03:03:22.058Z,9.00
2018-01-04T03:08:20.820Z,9.00
2018-01-04T03:10:48.893Z,8.90
2018-01-04T03:13:16.886Z,8.90
2018-01-04T03:15:45.268Z,8.80
2018-01-04T03:18:14.428Z,8.80
2018-01-04T03:20:42.424Z,8.80
2018-01-04T03:23:16.057Z,8.70
2018-01-04T03:25:50.181Z,8.70
2018-01-04T03:31:22.413Z,8.70
2018-01-04T03:33:57.543Z,8.70
2018-01-04T03:36:32.056Z,8.70
2018-01-04T03:39:06.414Z,8.70
2018-01-04T03:41:40.146Z,8.70
2018-01-04T03:44:13.848Z,8.70
2018-01-04T03:46:47.837Z,8.70
2018-01-04T03:49:22.001Z,8.80
2018-01-04T03:51:56.320Z,8.70
2018-01-04T03:54:30.340Z,8.70
2018-01-04T03:57:04.669Z,8.70
2018-01-04T03:59:39.029Z,8.70
2018-01-04T04:02:13.859Z,8.60
2018-01-04T04:07:24.804Z,8.60
2018-01-04T04:09:52.861Z,8.60
2018-01-04T04:12:20.852Z,8.60
2018-01-04T04:14:48.854Z,8.60
2018-01-04T04:17:16.874Z,8.60
2018-01-04T04:19:45.270Z,8.50
2018-01-04T04:22:13.263Z,8.60
2018-01-04T04:24:42.448Z,8.60
2018-01-04T04:27:11.216Z,8.50
2018-01-04T04:29:39.984Z,8.50
2018-01-04T04:32:08.412Z,8.50
2018-01-04T04:34:36.796Z,8.40
2018-01-04T04:37:04.812Z,8.50
2018-01-04T04:39:33.996Z,8.50
2018-01-04T04:42:02.024Z,8.60
2018-01-04T04:47:00.488Z,8.60
2018-01-04T04:49:28.542Z,8.60
2018-01-04T04:51:56.542Z,8.60
2018-01-04T04:54:25.337Z,8.60
2018-01-04T04:56:53.336Z,8.70
2018-01-04T04:59:22.832Z,8.70
2018-01-04T05:01:51.274Z,8.70
2018-01-04T05:04:19.277Z,8.70
2018-01-04T05:06:47.693Z,8.70
2018-01-04T05:09:16.501Z,8.80
2018-01-04T05:11:45.261Z,8.80
2018-01-04T05:14:13.652Z,8.80
2018-01-04T05:16:41.690Z,8.80
2018-01-04T05:19:09.705Z,8.80
2018-01-04T05:21:38.859Z,8.80
2018-01-04T05:24:06.886Z,8.80
2018-01-04T05:26:36.012Z,8.80
2018-01-04T05:29:04.004Z,8.80
2018-01-04T05:31:33.558Z,8.80
2018-01-04T05:34:03.065Z,8.80
2018-01-04T05:36:32.559Z,8.80
2018-01-04T05:39:00.608Z,8.80
2018-01-04T05:41:28.612Z,8.80
2018-01-04T05:43:57.010Z,8.80
2018-01-04T05:46:25.462Z,8.80
2018-01-04T05:48:53.452Z,8.80
2018-01-04T05:51:21.840Z,8.80
2018-01-04T05:53:51.385Z,8.80
2018-01-04T05:56:20.131Z,8.80
2018-01-04T05:58:48.124Z,8.80
2018-01-04T06:01:16.548Z,8.80
2018-01-04T06:03:46.052Z,8.80
2018-01-04T06:06:14.072Z,8.80
2018-01-04T06:08:42.122Z,8.80
2018-01-04T06:11:10.148Z,8.80
2018-01-04T06:13:38.190Z,8.90
2018-01-04T06:16:06.992Z,8.80
2018-01-04T06:18:34.989Z,8.90
2018-01-04T06:21:02.972Z,8.90
2018-01-04T06:23:31.008Z,8.90
2018-01-04T06:25:59.777Z,8.80
2018-01-04T06:28:27.781Z,8.80
2018-01-04T06:30:55.840Z,8.90
2018-01-04T06:33:23.828Z,8.90
2018-01-04T06:35:51.820Z,8.90
2018-01-04T06:38:20.460Z,8.90
2018-01-04T06:40:48.466Z,8.90
2018-01-04T06:43:16.456Z,8.80
2018-01-04T06:45:45.623Z,8.80
2018-01-04T06:48:14.401Z,8.80
2018-01-04T06:50:42.407Z,8.90
2018-01-04T06:53:10.455Z,8.90
2018-01-04T06:55:38.458Z,9.00
2018-01-04T06:58:07.992Z,9.00
2018-01-04T07:00:36.033Z,9.00
2018-01-04T07:03:04.425Z,9.00
2018-01-04T07:08:01.729Z,9.00
2018-01-04T07:10:29.724Z,9.00
2018-01-04T07:12:57.721Z,8.90
2018-01-04T07:15:25.745Z,9.00
2018-01-04T07:17:54.863Z,9.00
2018-01-04T07:20:23.248Z,9.00
2018-01-04T07:22:51.295Z,9.00
2018-01-04T07:25:19.277Z,9.00
2018-01-04T07:27:47.666Z,9.00
2018-01-04T07:32:45.708Z,9.00
2018-01-04T07:35:14.480Z,9.00
2018-01-04T07:37:42.508Z,9.00
2018-01-04T07:42:40.016Z,9.00
2018-01-04T07:45:08.300Z,9.00
2018-01-04T07:47:36.920Z,9.10
2018-01-04T07:52:35.801Z,9.10
2018-01-04T07:57:33.501Z,9.10
2018-01-04T08:00:01.760Z,9.00
2018-01-04T08:02:29.988Z,9.10
2018-01-04T08:04:58.232Z,9.00
2018-01-04T08:07:27.285Z,9.10
2018-01-04T08:09:55.518Z,9.00
2018-01-04T08:12:23.747Z,9.00
2018-01-04T08:14:52.076Z,8.90
2018-01-04T08:17:20.254Z,9.00
2018-01-04T08:19:48.489Z,9.00
2018-01-04T08:22:16.944Z,8.90
2018-01-04T08:24:45.933Z,9.00
2018-01-04T08:27:14.168Z,9.00
2018-01-04T08:29:43.216Z,9.00
2018-01-04T08:32:11.470Z,8.90
2018-01-04T08:34:39.734Z,8.90
2018-01-04T08:37:09.530Z,8.90
2018-01-04T08:39:39.296Z,8.90
2018-01-04T08:42:07.528Z,8.90
2018-01-04T08:44:35.796Z,8.90
2018-01-04T08:49:33.480Z,8.90
2018-01-04T08:52:01.741Z,9.00
2018-01-04T08:56:59.428Z,9.00
2018-01-04T08:59:28.478Z,9.00
2018-01-04T09:01:56.701Z,9.00
2018-01-04T09:04:24.948Z,9.00
2018-01-04T09:06:53.217Z,9.00
2018-01-04T09:09:22.954Z,9.00
2018-01-04T09:11:51.181Z,9.00
2018-01-04T09:14:20.600Z,9.00
2018-01-04T09:16:50.333Z,9.00
2018-01-04T09:21:49.567Z,9.00
2018-01-04T09:24:17.805Z,9.10
2018-01-04T09:26:46.868Z,9.10
2018-01-04T09:29:15.118Z,9.10
2018-01-04T09:31:43.369Z,9.20
2018-01-04T09:34:11.668Z,9.20
2018-01-04T09:36:39.904Z,9.30
2018-01-04T09:39:09.314Z,9.30
2018-01-04T09:41:37.565Z,9.20
2018-01-04T09:44:06.549Z,9.20
2018-01-04T09:46:34.782Z,9.20
2018-01-04T09:49:03.823Z,9.20
2018-01-04T09:51:32.058Z,9.20
2018-01-04T09:54:00.284Z,9.20
2018-01-04T09:56:28.592Z,9.20
2018-01-04T09:58:56.820Z,9.20
2018-01-04T10:01:25.044Z,9.20
2018-01-04T10:03:53.306Z,9.20
2018-01-04T10:06:22.660Z,9.20
2018-01-04T10:08:50.897Z,9.20
2018-01-04T10:11:19.168Z,9.20
2018-01-04T10:13:48.909Z,9.20
2018-01-04T10:16:17.136Z,9.20
2018-01-04T10:18:45.392Z,9.20
2018-01-04T10:21:13.655Z,9.20
2018-01-04T10:23:41.886Z,9.10
2018-01-04T10:26:11.677Z,9.10
2018-01-04T10:28:39.930Z,9.10
2018-01-04T10:31:08.164Z,9.10
2018-01-04T10:33:36.424Z,9.10
2018-01-04T10:36:06.156Z,9.10
2018-01-04T10:38:35.149Z,9.20
2018-01-04T10:41:03.413Z,9.10
2018-01-04T10:43:32.408Z,9.10
2018-01-04T10:53:29.053Z,9.10
2018-01-04T10:55:58.885Z,9.10
2018-01-04T10:58:27.117Z,9.00
2018-01-04T11:03:25.244Z,9.00
2018-01-04T11:05:53.478Z,8.90
2018-01-04T11:08:22.104Z,8.90
2018-01-04T11:10:50.356Z,8.90
2018-01-04T11:13:19.721Z,8.90
2018-01-04T11:15:47.940Z,8.90
2018-01-04T11:18:16.193Z,8.90
2018-01-04T11:20:44.442Z,8.90
2018-01-04T11:28:13.184Z,9.10
2018-01-04T11:30:42.194Z,9.00
2018-01-04T11:33:10.911Z,9.10
2018-01-04T11:38:09.384Z,9.00
2018-01-04T11:40:38.819Z,9.00
2018-01-04T11:45:38.107Z,9.00
2018-01-04T11:48:07.135Z,9.10
2018-01-04T11:50:35.349Z,9.10
2018-01-04T11:53:03.621Z,9.00
2018-01-04T11:55:31.847Z,9.00
2018-01-04T11:58:00.098Z,9.10
2018-01-04T12:02:58.284Z,9.10
2018-01-04T12:05:26.524Z,9.10
2018-01-04T12:07:54.791Z,9.10
2018-01-04T12:10:23.309Z,9.10
2018-01-04T12:12:52.312Z,9.10
2018-01-04T12:15:21.072Z,9.10
2018-01-04T12:17:50.436Z,9.00
2018-01-04T12:20:18.673Z,9.00
2018-01-04T12:22:46.973Z,9.00
2018-01-04T12:30:14.165Z,9.00
2018-01-04T12:32:43.916Z,9.00
2018-01-04T12:35:13.289Z,9.00
2018-01-04T12:37:41.573Z,9.00
2018-01-04T12:40:09.811Z,9.00
2018-01-04T12:42:38.041Z,9.10
2018-01-04T12:50:06.008Z,9.10
2018-01-04T12:52:34.272Z,9.10
2018-01-04T12:55:03.269Z,9.20
2018-01-04T13:00:02.756Z,9.20
2018-01-04T13:02:30.992Z,9.20
2018-01-04T13:04:59.288Z,9.20
2018-01-04T13:07:28.500Z,9.20
2018-01-04T13:09:56.738Z,9.30
2018-01-04T13:12:25.785Z,9.30
2018-01-04T13:14:54.018Z,9.30
2018-01-04T13:17:22.256Z,9.30
2018-01-04T13:19:52.322Z,9.20
2018-01-04T13:22:20.557Z,9.30
2018-01-04T13:24:49.660Z,9.30
2018-01-04T13:27:18.717Z,9.30
2018-01-04T13:29:47.721Z,9.30
2018-01-04T13:32:15.956Z,9.30
2018-01-04T13:34:44.245Z,9.30
2018-01-04T13:37:13.270Z,9.30
2018-01-04T13:39:42.308Z,9.30
2018-01-04T13:44:40.461Z,9.20
2018-01-04T13:47:09.469Z,9.10
2018-01-04T13:49:39.550Z,9.10
2018-01-04T13:52:08.652Z,9.10
2018-01-04T13:54:37.641Z,9.10
2018-01-04T13:57:07.064Z,9.10
2018-01-04T13:59:35.298Z,9.10
2018-01-04T14:02:03.535Z,9.00
2018-01-04T14:04:31.810Z,9.00
2018-01-04T14:07:00.050Z,9.00
2018-01-04T14:09:28.295Z,9.00
2018-01-04T14:11:57.342Z,9.10
2018-01-04T14:14:25.977Z,9.00
2018-01-04T14:16:54.981Z,9.10
2018-01-04T14:19:24.004Z,9.10
2018-01-04T14:21:52.240Z,9.10
2018-01-04T14:29:20.335Z,9.20
2018-01-04T14:31:49.325Z,9.30
2018-01-04T14:34:17.604Z,9.30
2018-01-04T14:36:45.833Z,9.40
2018-01-04T14:39:14.092Z,9.40
2018-01-04T14:41:44.128Z,9.40
2018-01-04T14:44:13.513Z,9.40
2018-01-04T14:46:41.779Z,9.50
2018-01-04T14:51:40.315Z,9.60
2018-01-04T14:54:08.651Z,9.60
2018-01-04T14:56:36.936Z,9.60
2018-01-04T14:59:05.990Z,9.60
2018-01-04T15:01:35.062Z,9.70
2018-01-04T15:04:04.049Z,9.80
2018-01-04T15:09:02.136Z,9.80
2018-01-04T15:11:30.434Z,9.90
2018-01-04T15:13:58.697Z,9.90
2018-01-04T15:16:27.722Z,9.90
2018-01-04T15:18:56.759Z,9.90
2018-01-04T15:21:24.999Z,10.00
2018-01-04T15:28:52.198Z,10.00
2018-01-04T15:31:21.944Z,10.10
2018-01-04T15:33:50.240Z,10.10
2018-01-04T15:38:48.765Z,10.20
2018-01-04T15:41:17.817Z,10.20
2018-01-04T15:43:46.098Z,10.30
2018-01-04T15:46:14.329Z,10.40
2018-01-04T15:48:42.659Z,10.40
2018-01-04T15:51:10.902Z,10.50
2018-01-04T15:53:40.316Z,10.60
2018-01-04T15:56:09.425Z,10.60
2018-01-04T15:58:39.210Z,10.60
2018-01-04T16:01:07.470Z,10.70
2018-01-04T16:03:35.732Z,10.70
2018-01-04T16:06:03.974Z,10.70
2018-01-04T16:08:33.349Z,10.80
2018-01-04T16:11:01.645Z,10.90
2018-01-04T16:13:29.876Z,11.00
2018-01-04T16:15:58.105Z,11.00
2018-01-04T16:18:27.052Z,11.10
2018-01-04T16:23:24.736Z,11.20
2018-01-04T16:25:53.764Z,11.20
2018-01-04T16:28:22.024Z,11.30
2018-01-04T16:30:51.002Z,11.30
2018-01-04T16:33:19.660Z,11.30
2018-01-04T16:35:48.322Z,11.30
2018-01-04T16:38:16.553Z,11.30
2018-01-04T16:40:45.648Z,11.30
2018-01-04T16:43:14.662Z,11.30
2018-01-04T16:45:42.924Z,11.30
2018-01-04T16:48:11.220Z,11.20
2018-01-04T16:50:39.441Z,11.20
2018-01-04T16:53:07.696Z,11.20
2018-01-04T16:55:37.040Z,11.20
2018-01-04T16:58:06.089Z,11.20
2018-01-04T17:00:34.328Z,11.20
2018-01-04T17:03:03.372Z,11.20
2018-01-04T17:05:32.740Z,11.20
2018-01-04T17:08:01.745Z,11.20
2018-01-04T17:10:30.051Z,11.10
2018-01-04T17:12:58.303Z,11.10
2018-01-04T17:15:26.508Z,11.10
2018-01-04T17:17:54.778Z,11.10
2018-01-04T17:20:23.450Z,11.20
2018-01-04T17:22:52.076Z,11.20
2018-01-04T17:25:20.353Z,11.20
2018-01-04T17:27:49.360Z,11.20
2018-01-04T17:30:17.588Z,11.20
2018-01-04T17:32:47.364Z,11.20
2018-01-04T17:35:15.642Z,11.20
2018-01-04T17:37:46.856Z,11.20
2018-01-04T17:40:16.520Z,11.20
2018-01-04T17:42:45.198Z,11.20
2018-01-04T17:45:13.416Z,11.20
2018-01-04T17:47:41.784Z,11.20
2018-01-04T17:50:10.533Z,11.20
2018-01-04T17:52:39.571Z,11.30
2018-01-04T17:57:38.810Z,11.30
2018-01-04T18:00:08.894Z,11.30
2018-01-04T18:02:37.939Z,11.30
2018-01-04T18:05:06.261Z,11.30
2018-01-04T18:10:05.549Z,11.30
2018-01-04T18:15:03.396Z,11.30
2018-01-04T18:17:31.710Z,11.30
2018-01-04T18:22:30.019Z,11.30
2018-01-04T18:24:58.287Z,11.30
2018-01-04T18:27:27.337Z,11.30
2018-01-04T18:32:25.481Z,11.30
2018-01-04T18:34:53.716Z,11.30
2018-01-04T18:37:23.820Z,11.30
2018-01-04T18:39:52.806Z,11.30
2018-01-04T18:42:21.856Z,11.30
2018-01-04T18:44:50.146Z,11.30
2018-01-04T18:47:18.410Z,11.30
2018-01-04T18:49:47.451Z,11.30
2018-01-04T18:54:45.269Z,11.40
2018-01-04T18:57:14.256Z,11.40
2018-01-04T18:59:43.345Z,11.40
2018-01-04T19:02:11.957Z,11.40
2018-01-04T19:04:40.630Z,11.40
2018-01-04T19:07:11.145Z,11.40
2018-01-04T19:09:40.881Z,11.40
2018-01-04T19:12:09.154Z,11.40
2018-01-04T19:14:37.472Z,11.40
2018-01-04T19:17:05.746Z,11.40
2018-01-04T19:19:35.505Z,11.40
2018-01-04T19:22:03.827Z,11.40
2018-01-04T19:24:32.163Z,11.40
2018-01-04T19:27:00.438Z,11.40
2018-01-04T19:29:28.781Z,11.30
2018-01-04T19:34:26.964Z,11.30
2018-01-04T19:36:55.247Z,11.30
2018-01-04T19:39:23.520Z,11.30
2018-01-04T19:41:53.304Z,11.30
2018-01-04T19:46:51.085Z,11.30
2018-01-04T19:49:20.069Z,11.30
2018-01-04T19:51:48.384Z,11.30
2018-01-04T19:54:17.424Z,11.30
2018-01-04T19:56:46.467Z,11.30
2018-01-04T19:59:15.212Z,11.30
2018-01-04T20:01:43.488Z,11.30
2018-01-04T20:04:11.728Z,11.30
2018-01-04T20:06:40.057Z,11.30
2018-01-04T20:09:08.342Z,11.30
2018-01-04T20:11:38.145Z,11.30
2018-01-04T20:14:06.469Z,11.30
2018-01-04T20:16:34.743Z,11.20
2018-01-04T20:19:03.058Z,11.20
2018-01-04T20:21:31.428Z,11.30
2018-01-04T20:24:01.252Z,11.30
2018-01-04T20:26:29.602Z,11.20
2018-01-04T20:28:57.932Z,11.20
2018-01-04T20:33:56.101Z,11.10
2018-01-04T20:36:25.187Z,11.10
2018-01-04T20:38:53.460Z,11.10
2018-01-04T20:41:21.745Z,11.10
2018-01-04T20:43:50.068Z,11.10
2018-01-04T20:46:18.364Z,11.10
2018-01-04T20:48:48.152Z,11.10
2018-01-04T20:51:17.971Z,11.00
2018-01-04T20:53:46.235Z,11.00
2018-01-04T20:56:14.519Z,10.90
2018-01-04T20:58:42.856Z,11.00
2018-01-04T21:01:11.123Z,11.00
2018-01-04T21:03:40.903Z,11.00
2018-01-04T21:06:10.188Z,11.00
2018-01-04T21:08:39.245Z,11.00
2018-01-04T21:11:08.664Z,11.00
2018-01-04T21:13:38.487Z,11.00
2018-01-04T21:16:06.769Z,11.00
2018-01-04T21:18:35.066Z,11.00
2018-01-04T21:21:03.383Z,10.90
2018-01-04T21:28:31.460Z,10.70
2018-01-04T21:30:59.749Z,10.70
2018-01-04T21:33:28.041Z,10.60
2018-01-04T21:35:56.831Z,10.60
2018-01-04T21:38:25.872Z,10.60
2018-01-04T21:40:54.147Z,10.60
2018-01-04T21:43:22.444Z,10.60
2018-01-04T21:45:50.717Z,10.50
2018-01-04T21:48:19.249Z,10.50
2018-01-04T21:50:48.402Z,10.50
2018-01-04T21:53:16.676Z,10.50
2018-01-04T21:55:44.937Z,10.50
2018-01-04T21:58:14.742Z,10.40
2018-01-04T22:00:43.011Z,10.40
2018-01-04T22:03:11.278Z,10.50
2018-01-04T22:05:39.578Z,10.50
2018-01-04T22:08:08.996Z,10.40
2018-01-04T22:10:38.028Z,10.40
2018-01-04T22:13:07.485Z,10.40
2018-01-04T22:15:35.746Z,10.40
2018-01-04T22:18:06.646Z,10.40
2018-01-04T22:20:36.083Z,10.30
2018-01-04T22:23:04.386Z,10.40
2018-01-04T22:25:32.727Z,10.30
2018-01-04T22:28:01.057Z,10.30
2018-01-04T22:30:30.107Z,10.30
2018-01-04T22:32:59.159Z,10.30
2018-01-04T22:35:27.464Z,10.20
2018-01-04T22:37:56.491Z,10.20
2018-01-04T22:40:24.765Z,10.20
2018-01-04T22:42:53.079Z,10.10
2018-01-04T22:45:21.348Z,10.10
2018-01-04T22:47:49.624Z,10.10
2018-01-04T22:50:19.456Z,10.10
2018-01-04T22:52:49.242Z,10.10
2018-01-04T22:55:17.533Z,10.00
2018-01-04T22:57:46.072Z,10.00
2018-01-04T23:02:44.576Z,10.10
2018-01-04T23:05:12.884Z,10.00
2018-01-04T23:07:42.284Z,10.00
2018-01-04T23:10:12.047Z,9.90
2018-01-04T23:12:40.755Z,10.00
2018-01-04T23:15:09.032Z,9.90
2018-01-04T23:17:37.289Z,9.80
2018-01-04T23:20:05.570Z,9.90
2018-01-04T23:22:34.620Z,9.90
2018-01-04T23:25:02.899Z,9.90
2018-01-04T23:27:31.195Z,9.80
2018-01-04T23:29:59.477Z,9.80
2018-01-04T23:37:27.352Z,9.70
2018-01-04T23:39:56.387Z,9.70
2018-01-04T23:44:54.194Z,9.50
2018-01-04T23:49:52.362Z,9.50
2018-01-04T23:52:20.623Z,9.50
2018-01-04T23:54:48.897Z,9.50
2018-01-04T23:57:17.187Z,9.50
2018-01-04T23:59:46.217Z,9.50
